createdAt,value
2022-10-20T00:00:28.854Z,1.47
2022-10-20T00:02:56.292Z,1.50
2022-10-20T00:05:23.538Z,1.47
2022-10-20T00:07:50.804Z,1.40
2022-10-20T00:10:18.141Z,1.40
2022-10-20T00:12:45.442Z,1.47
2022-10-20T00:15:12.747Z,1.43
2022-10-20T00:17:40.075Z,1.43
2022-10-20T00:20:07.688Z,1.30
2022-10-20T00:22:35.386Z,1.33
2022-10-20T00:25:02.815Z,1.37
2022-10-20T00:27:30.103Z,1.40
2022-10-20T00:29:57.452Z,1.67
2022-10-20T00:32:24.731Z,1.60
2022-10-20T00:34:51.981Z,1.20
2022-10-20T00:37:19.267Z,1.27
2022-10-20T00:39:46.526Z,1.23
2022-10-20T00:42:18.232Z,1.30
2022-10-20T00:44:50.294Z,1.60
2022-10-20T00:47:19.756Z,1.30
2022-10-20T00:49:47.597Z,1.60
2022-10-20T00:52:16.129Z,1.47
2022-10-20T00:54:43.568Z,1.60
2022-10-20T00:57:10.836Z,1.60
2022-10-20T00:59:38.459Z,1.20
2022-10-20T01:02:07.660Z,1.37
2022-10-20T01:04:35.241Z,1.47
2022-10-20T01:07:02.725Z,1.60
2022-10-20T01:09:30.244Z,1.60
2022-10-20T01:12:20.706Z,1.60
2022-10-20T01:14:58.630Z,1.40
2022-10-20T01:17:55.250Z,1.67
2022-10-20T01:20:31.433Z,1.43
2022-10-20T01:23:07.775Z,1.50
2022-10-20T01:25:55.523Z,1.70
2022-10-20T01:28:40.577Z,1.40
2022-10-20T01:31:13.705Z,1.40
2022-10-20T01:33:44.339Z,1.43
2022-10-20T01:36:14.905Z,1.33
2022-10-20T01:38:49.641Z,1.50
2022-10-20T01:41:25.485Z,1.43
2022-10-20T01:43:53.401Z,1.53
2022-10-20T01:46:22.387Z,1.30
2022-10-20T01:48:49.904Z,1.37
2022-10-20T01:51:17.245Z,1.40
2022-10-20T01:53:44.506Z,1.63
2022-10-20T01:56:18.608Z,1.40
2022-10-20T01:58:58.011Z,1.33
2022-10-20T02:01:44.220Z,1.60
2022-10-20T02:04:11.687Z,1.30
2022-10-20T02:06:41.850Z,1.50
2022-10-20T02:09:12.244Z,1.13
2022-10-20T02:11:46.002Z,1.53
2022-10-20T02:14:15.067Z,1.33
2022-10-20T02:17:08.762Z,1.60
2022-10-20T02:19:38.362Z,1.63
2022-10-20T02:22:05.996Z,1.73
2022-10-20T02:24:36.214Z,2.00
2022-10-20T02:27:05.045Z,1.60
2022-10-20T02:29:36.255Z,1.63
2022-10-20T02:32:03.875Z,1.47
2022-10-20T02:34:31.210Z,1.57
2022-10-20T02:36:59.248Z,1.47
2022-10-20T02:39:26.661Z,1.70
2022-10-20T02:41:54.671Z,1.47
2022-10-20T02:44:22.894Z,1.30
2022-10-20T02:46:50.279Z,1.33
2022-10-20T02:49:17.586Z,1.53
2022-10-20T02:51:44.852Z,1.30
2022-10-20T02:54:12.139Z,1.87
2022-10-20T02:56:39.473Z,1.40
2022-10-20T02:59:06.738Z,1.70
2022-10-20T03:01:34.077Z,1.87
2022-10-20T03:04:01.419Z,2.03
2022-10-20T03:06:28.683Z,1.60
2022-10-20T03:08:56.156Z,1.60
2022-10-20T03:11:23.806Z,1.67
2022-10-20T03:13:51.070Z,1.87
2022-10-20T03:16:18.342Z,1.47
2022-10-20T03:18:45.696Z,1.80
2022-10-20T03:21:12.971Z,1.90
2022-10-20T03:23:40.390Z,1.90
2022-10-20T03:26:08.679Z,1.43
2022-10-20T03:28:35.951Z,1.93
2022-10-20T03:31:03.253Z,1.57
2022-10-20T03:33:30.731Z,1.50
2022-10-20T03:35:58.041Z,1.67
2022-10-20T03:38:25.349Z,1.50
2022-10-20T03:40:52.656Z,1.50
2022-10-20T03:43:19.978Z,2.03
2022-10-20T03:45:47.342Z,2.20
2022-10-20T03:48:14.613Z,1.70
2022-10-20T03:50:42.848Z,1.73
2022-10-20T03:53:14.064Z,1.93
2022-10-20T03:55:41.457Z,2.10
2022-10-20T03:58:08.766Z,1.97
2022-10-20T04:00:36.119Z,1.90
2022-10-20T04:03:03.456Z,2.03
2022-10-20T04:05:30.743Z,2.10
2022-10-20T04:07:58.031Z,2.07
2022-10-20T04:10:25.313Z,1.70
2022-10-20T04:12:53.003Z,1.80
2022-10-20T04:15:20.337Z,2.07
2022-10-20T04:17:48.041Z,1.60
2022-10-20T04:20:15.365Z,2.00
2022-10-20T04:22:42.716Z,1.63
2022-10-20T04:25:12.133Z,1.97
2022-10-20T04:27:40.176Z,1.83
2022-10-20T04:30:07.934Z,1.83
2022-10-20T04:32:35.191Z,1.70
2022-10-20T04:35:02.489Z,1.77
2022-10-20T04:37:29.778Z,2.07
2022-10-20T04:39:57.807Z,1.90
2022-10-20T04:42:25.143Z,1.93
2022-10-20T04:44:52.457Z,2.00
2022-10-20T04:47:19.834Z,1.70
2022-10-20T04:49:47.152Z,2.30
2022-10-20T04:52:14.409Z,1.70
2022-10-20T04:54:41.771Z,2.10
2022-10-20T04:57:10.761Z,2.17
2022-10-20T04:59:38.063Z,2.00
2022-10-20T05:02:05.406Z,1.87
2022-10-20T05:04:32.708Z,2.00
2022-10-20T05:06:59.962Z,2.70
2022-10-20T05:09:27.248Z,2.67
2022-10-20T05:11:54.547Z,1.80
2022-10-20T05:14:21.893Z,2.60
2022-10-20T05:16:49.158Z,1.87
2022-10-20T05:19:16.437Z,2.10
2022-10-20T05:21:43.809Z,1.73
2022-10-20T05:24:18.347Z,1.63
2022-10-20T05:26:48.848Z,2.03
2022-10-20T05:29:16.104Z,1.93
2022-10-20T05:31:44.075Z,2.13
2022-10-20T05:34:12.119Z,2.30
2022-10-20T05:36:39.882Z,2.47
2022-10-20T05:39:07.142Z,2.23
2022-10-20T05:41:37.914Z,1.77
2022-10-20T05:44:08.506Z,1.57
2022-10-20T05:46:38.377Z,1.83
2022-10-20T05:49:05.684Z,1.97
2022-10-20T05:51:35.287Z,1.97
2022-10-20T05:54:02.725Z,2.13
2022-10-20T05:56:30.800Z,2.40
2022-10-20T05:58:58.553Z,2.33
2022-10-20T06:01:39.254Z,1.87
2022-10-20T06:04:08.574Z,1.83
2022-10-20T06:06:36.260Z,2.30
2022-10-20T06:09:05.247Z,1.90
2022-10-20T06:11:37.042Z,2.53
2022-10-20T06:14:06.719Z,2.00
2022-10-20T06:16:34.020Z,2.43
2022-10-20T06:19:01.841Z,1.97
2022-10-20T06:21:30.909Z,1.77
2022-10-20T06:24:01.874Z,2.60
2022-10-20T06:26:29.958Z,2.30
2022-10-20T06:29:03.582Z,2.27
2022-10-20T06:31:32.355Z,2.00
2022-10-20T06:34:00.226Z,2.67
2022-10-20T06:36:28.046Z,2.77
2022-10-20T06:38:56.379Z,2.23
2022-10-20T06:41:23.845Z,1.87
2022-10-20T06:43:57.843Z,2.33
2022-10-20T06:46:25.387Z,2.10
2022-10-20T06:48:57.732Z,2.50
2022-10-20T06:51:26.123Z,2.10
2022-10-20T06:53:53.753Z,1.90
2022-10-20T06:56:23.644Z,2.60
2022-10-20T06:58:52.355Z,1.73
2022-10-20T07:01:23.783Z,2.23
2022-10-20T07:03:53.220Z,2.00
2022-10-20T07:06:22.044Z,2.23
2022-10-20T07:08:51.032Z,1.93
2022-10-20T07:11:19.587Z,2.73
2022-10-20T07:13:46.922Z,2.23
2022-10-20T07:16:15.341Z,1.97
2022-10-20T07:21:16.069Z,1.90
2022-10-20T07:23:43.522Z,2.00
2022-10-20T07:26:15.874Z,2.10
2022-10-20T07:28:44.077Z,2.37
2022-10-20T07:31:13.357Z,2.27
2022-10-20T07:33:40.632Z,1.87
2022-10-20T07:36:16.792Z,2.53
2022-10-20T07:38:44.452Z,2.27
2022-10-20T07:41:11.859Z,2.40
2022-10-20T07:43:39.667Z,1.77
2022-10-20T07:46:07.241Z,2.00
2022-10-20T07:48:34.774Z,2.37
2022-10-20T07:51:21.016Z,2.13
2022-10-20T07:53:48.689Z,2.63
2022-10-20T07:56:16.501Z,2.10
2022-10-20T07:58:43.943Z,2.57
2022-10-20T08:01:11.212Z,2.57
2022-10-20T08:03:38.737Z,2.10
2022-10-20T08:06:06.589Z,2.43
2022-10-20T08:08:34.217Z,2.50
2022-10-20T08:11:02.054Z,2.17
2022-10-20T08:13:29.986Z,3.65
2022-10-20T08:16:05.217Z,2.67
2022-10-20T08:18:32.522Z,2.57
2022-10-20T08:21:10.356Z,2.47
2022-10-20T08:23:41.352Z,2.17
2022-10-20T08:26:11.383Z,2.07
2022-10-20T08:28:38.972Z,2.30
2022-10-20T08:31:07.320Z,2.77
2022-10-20T08:33:35.091Z,2.10
2022-10-20T08:36:12.604Z,2.60
2022-10-20T08:38:40.649Z,2.27
2022-10-20T08:41:14.787Z,2.47
2022-10-20T08:43:42.612Z,2.60
2022-10-20T08:46:20.110Z,2.23
2022-10-20T08:48:48.623Z,2.10
2022-10-20T08:51:20.385Z,2.00
2022-10-20T08:53:48.292Z,2.57
2022-10-20T08:56:15.927Z,3.03
2022-10-20T08:58:46.529Z,2.40
2022-10-20T09:01:24.704Z,2.30
2022-10-20T09:03:56.084Z,2.70
2022-10-20T09:06:23.410Z,2.33
2022-10-20T09:08:50.725Z,2.60
2022-10-20T09:11:19.916Z,3.00
2022-10-20T09:16:40.490Z,2.53
2022-10-20T09:19:20.105Z,2.17
2022-10-20T09:21:50.778Z,2.00
2022-10-20T09:24:19.224Z,2.03
2022-10-20T09:26:59.174Z,2.00
2022-10-20T09:29:38.116Z,2.37
2022-10-20T09:32:44.307Z,2.47
2022-10-20T09:35:19.055Z,2.60
2022-10-20T09:37:51.615Z,2.40
2022-10-20T09:40:19.427Z,2.67
2022-10-20T09:42:50.816Z,1.97
2022-10-20T09:45:28.500Z,2.33
2022-10-20T09:48:00.746Z,2.43
2022-10-20T09:50:30.119Z,2.33
2022-10-20T09:52:58.570Z,2.67
2022-10-20T09:55:27.671Z,2.63
2022-10-20T09:57:55.732Z,2.57
2022-10-20T10:00:36.236Z,2.97
2022-10-20T10:03:19.804Z,2.43
2022-10-20T10:05:47.435Z,2.47
2022-10-20T10:08:15.658Z,2.10
2022-10-20T10:10:44.136Z,2.57
2022-10-20T10:13:25.257Z,2.37
2022-10-20T10:16:03.727Z,2.30
2022-10-20T10:18:31.033Z,2.83
2022-10-20T10:21:00.024Z,3.03
2022-10-20T10:23:28.633Z,4.00
2022-10-20T10:25:59.258Z,2.70
2022-10-20T10:28:34.991Z,3.10
2022-10-20T10:31:10.601Z,2.60
2022-10-20T10:33:37.897Z,2.67
2022-10-20T10:36:12.792Z,3.20
2022-10-20T10:38:40.147Z,2.63
2022-10-20T10:41:26.979Z,2.43
2022-10-20T10:43:54.280Z,3.07
2022-10-20T10:46:26.163Z,2.60
2022-10-20T10:48:59.383Z,2.87
2022-10-20T10:51:38.647Z,2.57
2022-10-20T10:54:14.821Z,2.57
2022-10-20T10:56:45.135Z,2.80
2022-10-20T10:59:12.600Z,2.40
2022-10-20T11:01:46.045Z,2.73
2022-10-20T11:04:25.528Z,3.00
2022-10-20T11:07:02.097Z,2.37
2022-10-20T11:09:42.323Z,3.00
2022-10-20T11:12:09.571Z,2.87
2022-10-20T11:14:39.755Z,3.40
2022-10-20T11:17:13.374Z,3.03
2022-10-20T11:19:59.477Z,2.80
2022-10-20T11:22:26.729Z,2.87
2022-10-20T11:25:00.174Z,3.07
2022-10-20T11:27:28.815Z,3.03
2022-10-20T11:30:04.617Z,2.50
2022-10-20T11:32:38.551Z,2.57
2022-10-20T11:35:14.807Z,3.00
2022-10-20T11:37:44.717Z,3.43
2022-10-20T11:40:12.865Z,2.87
2022-10-20T11:42:47.894Z,2.50
2022-10-20T11:45:18.294Z,2.63
2022-10-20T11:47:46.454Z,2.57
2022-10-20T11:50:14.443Z,3.27
2022-10-20T11:53:00.606Z,2.80
2022-10-20T11:55:27.865Z,2.77
2022-10-20T11:58:09.888Z,3.63
2022-10-20T12:00:47.634Z,3.00
2022-10-20T12:03:17.779Z,2.83
2022-10-20T12:06:09.061Z,2.67
2022-10-20T12:08:52.736Z,2.60
2022-10-20T12:11:39.053Z,3.33
2022-10-20T12:14:29.049Z,2.77
2022-10-20T12:16:59.362Z,2.77
2022-10-20T12:19:27.973Z,2.70
2022-10-20T12:22:06.569Z,2.97
2022-10-20T12:24:38.245Z,3.23
2022-10-20T12:27:06.220Z,2.63
2022-10-20T12:29:33.502Z,2.83
2022-10-20T12:32:25.629Z,2.87
2022-10-20T12:34:56.991Z,2.77
2022-10-20T12:37:24.253Z,3.23
2022-10-20T12:39:55.331Z,2.97
2022-10-20T12:42:22.622Z,2.70
2022-10-20T12:44:50.712Z,2.87
2022-10-20T12:47:24.520Z,3.03
2022-10-20T12:49:57.922Z,3.13
2022-10-20T12:52:28.488Z,2.73
2022-10-20T12:55:05.421Z,2.70
2022-10-20T12:57:36.807Z,3.77
2022-10-20T13:00:08.746Z,2.93
2022-10-20T13:02:44.442Z,4.15
2022-10-20T13:05:14.597Z,2.83
2022-10-20T13:07:48.093Z,2.77
2022-10-20T13:10:30.468Z,2.80
2022-10-20T13:13:03.709Z,2.60
2022-10-20T13:15:37.857Z,2.13
2022-10-20T13:18:07.893Z,3.10
2022-10-20T13:20:50.356Z,2.43
2022-10-20T13:23:19.417Z,3.60
2022-10-20T13:25:56.692Z,2.97
2022-10-20T13:28:25.072Z,3.23
2022-10-20T13:31:11.148Z,2.90
2022-10-20T13:34:03.139Z,2.80
2022-10-20T13:36:31.551Z,3.03
2022-10-20T13:39:02.852Z,3.33
2022-10-20T13:41:35.882Z,3.17
2022-10-20T13:44:11.717Z,3.50
2022-10-20T13:46:51.674Z,3.07
2022-10-20T13:49:35.553Z,2.70
2022-10-20T13:52:08.951Z,2.60
2022-10-20T13:54:37.683Z,3.00
2022-10-20T13:57:05.161Z,2.80
2022-10-20T13:59:33.442Z,2.73
2022-10-20T14:02:03.658Z,3.10
2022-10-20T14:04:35.558Z,3.20
2022-10-20T14:07:03.953Z,3.00
2022-10-20T14:09:31.542Z,3.07
2022-10-20T14:12:03.377Z,3.37
2022-10-20T14:14:30.796Z,2.93
2022-10-20T14:16:59.085Z,3.50
2022-10-20T14:19:30.576Z,3.23
2022-10-20T14:21:59.642Z,3.40
2022-10-20T14:24:30.670Z,3.20
2022-10-20T14:29:36.098Z,3.60
2022-10-20T14:32:03.655Z,3.20
2022-10-20T14:34:33.977Z,3.43
2022-10-20T14:37:01.644Z,3.93
2022-10-20T14:39:31.766Z,3.20
2022-10-20T14:42:00.521Z,3.47
2022-10-20T14:44:31.472Z,3.67
2022-10-20T14:47:04.595Z,3.13
2022-10-20T14:49:37.077Z,4.25
2022-10-20T14:52:21.684Z,3.07
2022-10-20T14:54:50.547Z,2.70
2022-10-20T14:57:17.818Z,3.37
2022-10-20T15:00:04.740Z,2.90
2022-10-20T15:02:33.457Z,2.93
2022-10-20T15:05:19.474Z,2.93
2022-10-20T15:07:46.923Z,2.90
2022-10-20T15:10:15.740Z,3.33
2022-10-20T15:12:43.954Z,2.87
2022-10-20T15:15:11.225Z,3.23
2022-10-20T15:17:40.081Z,3.40
2022-10-20T15:20:26.594Z,2.90
2022-10-20T15:22:55.377Z,2.80
2022-10-20T15:25:23.208Z,3.00
2022-10-20T15:27:50.580Z,4.95
2022-10-20T15:30:18.801Z,3.27
2022-10-20T15:32:46.093Z,3.30
2022-10-20T15:35:14.139Z,3.03
2022-10-20T15:37:41.447Z,2.97
2022-10-20T15:40:08.900Z,3.90
2022-10-20T15:42:36.429Z,3.80
2022-10-20T15:45:11.163Z,3.70
2022-10-20T15:47:38.421Z,3.40
2022-10-20T15:50:06.023Z,2.93
2022-10-20T15:52:33.332Z,3.33
2022-10-20T15:55:00.597Z,2.90
2022-10-20T15:57:28.669Z,3.50
2022-10-20T15:59:55.951Z,3.37
2022-10-20T16:02:23.291Z,3.77
2022-10-20T16:04:50.530Z,2.93
2022-10-20T16:07:17.785Z,3.33
2022-10-20T16:09:45.095Z,3.33
2022-10-20T16:12:12.325Z,3.07
2022-10-20T16:14:39.654Z,3.93
2022-10-20T16:17:06.933Z,2.73
2022-10-20T16:19:34.285Z,3.63
2022-10-20T16:22:01.556Z,3.03
2022-10-20T16:24:28.911Z,3.20
2022-10-20T16:26:56.194Z,3.87
2022-10-20T16:29:23.541Z,2.90
2022-10-20T16:31:50.819Z,3.17
2022-10-20T16:34:18.091Z,3.50
2022-10-20T16:36:45.378Z,3.43
2022-10-20T16:39:13.717Z,2.87
2022-10-20T16:41:40.984Z,3.97
2022-10-20T16:44:08.263Z,3.53
2022-10-20T16:46:35.508Z,3.57
2022-10-20T16:49:02.825Z,3.17
2022-10-20T16:51:30.221Z,3.23
2022-10-20T16:54:02.913Z,3.13
2022-10-20T16:56:30.788Z,3.30
2022-10-20T16:58:58.207Z,4.17
2022-10-20T17:01:25.584Z,3.63
2022-10-20T17:03:53.614Z,3.23
2022-10-20T17:06:22.261Z,3.53
2022-10-20T17:08:49.608Z,3.20
2022-10-20T17:11:18.681Z,3.83
2022-10-20T17:13:45.948Z,3.53
2022-10-20T17:16:18.044Z,3.33
2022-10-20T17:18:45.334Z,2.97
2022-10-20T17:21:13.045Z,3.50
2022-10-20T17:23:42.746Z,3.63
2022-10-20T17:26:12.587Z,3.20
2022-10-20T17:28:39.921Z,3.10
2022-10-20T17:31:08.503Z,3.17
2022-10-20T17:33:35.793Z,3.07
2022-10-20T17:36:03.116Z,3.03
2022-10-20T17:38:30.542Z,2.93
2022-10-20T17:41:03.190Z,3.27
2022-10-20T17:43:30.588Z,3.30
2022-10-20T17:46:01.878Z,2.80
2022-10-20T17:48:29.224Z,3.70
2022-10-20T17:51:09.449Z,3.40
2022-10-20T17:53:37.750Z,3.43
2022-10-20T17:56:06.354Z,2.90
2022-10-20T17:58:33.857Z,3.40
2022-10-20T18:01:13.087Z,2.93
2022-10-20T18:03:40.678Z,3.40
2022-10-20T18:06:12.096Z,3.67
2022-10-20T18:08:39.775Z,3.20
2022-10-20T18:11:12.466Z,3.87
2022-10-20T18:13:40.678Z,3.20
2022-10-20T18:16:11.883Z,3.67
2022-10-20T18:18:39.466Z,3.30
2022-10-20T18:21:07.433Z,3.10
2022-10-20T18:23:36.245Z,2.70
2022-10-20T18:26:08.038Z,3.17
2022-10-20T18:28:35.551Z,2.90
2022-10-20T18:31:06.680Z,3.67
2022-10-20T18:33:33.989Z,2.87
2022-10-20T18:36:08.099Z,4.03
2022-10-20T18:38:36.021Z,3.10
2022-10-20T18:41:07.642Z,3.33
2022-10-20T18:43:34.992Z,3.53
2022-10-20T18:46:02.997Z,2.87
2022-10-20T18:48:31.153Z,3.47
2022-10-20T18:50:59.655Z,3.37
2022-10-20T18:53:27.910Z,3.73
2022-10-20T18:56:01.217Z,3.30
2022-10-20T18:58:29.135Z,3.30
2022-10-20T19:00:57.204Z,3.43
2022-10-20T19:03:24.906Z,2.93
2022-10-20T19:05:57.563Z,3.20
2022-10-20T19:08:24.819Z,3.40
2022-10-20T19:10:52.117Z,2.73
2022-10-20T19:13:19.379Z,3.70
2022-10-20T19:15:46.765Z,3.77
2022-10-20T19:18:14.006Z,3.60
2022-10-20T19:20:41.348Z,3.50
2022-10-20T19:23:08.699Z,3.20
2022-10-20T19:25:35.998Z,3.80
2022-10-20T19:28:03.289Z,3.70
2022-10-20T19:30:33.824Z,3.50
2022-10-20T19:33:01.154Z,3.33
2022-10-20T19:35:28.487Z,3.63
2022-10-20T19:37:55.815Z,3.53
2022-10-20T19:40:27.542Z,3.00
2022-10-20T19:42:55.748Z,4.30
2022-10-20T19:45:23.028Z,3.50
2022-10-20T19:47:50.309Z,3.33
2022-10-20T19:50:17.650Z,3.20
2022-10-20T19:52:45.207Z,3.40
2022-10-20T19:55:12.589Z,3.13
2022-10-20T19:57:40.621Z,3.20
2022-10-20T20:00:08.315Z,3.27
2022-10-20T20:02:37.381Z,3.10
2022-10-20T20:05:05.231Z,2.70
2022-10-20T20:07:32.503Z,3.20
2022-10-20T20:09:59.812Z,2.90
2022-10-20T20:12:28.193Z,4.40
2022-10-20T20:14:55.446Z,3.53
2022-10-20T20:17:22.807Z,4.37
2022-10-20T20:19:50.118Z,3.20
2022-10-20T20:22:17.438Z,3.47
2022-10-20T20:24:44.695Z,2.97
2022-10-20T20:27:12.041Z,3.50
2022-10-20T20:29:39.297Z,3.27
2022-10-20T20:32:06.686Z,3.00
2022-10-20T20:34:34.104Z,3.13
2022-10-20T20:37:01.359Z,3.00
2022-10-20T20:39:28.661Z,3.13
2022-10-20T20:41:55.977Z,3.07
2022-10-20T20:46:55.409Z,3.37
2022-10-20T20:49:22.942Z,2.73
2022-10-20T20:51:50.228Z,3.30
2022-10-20T20:54:17.473Z,3.47
2022-10-20T20:56:44.869Z,2.97
2022-10-20T20:59:12.154Z,3.50
2022-10-20T21:01:39.890Z,3.83
2022-10-20T21:04:11.370Z,3.53
2022-10-20T21:07:00.754Z,3.33
2022-10-20T21:09:27.248Z,2.87
2022-10-20T21:11:54.515Z,3.10
2022-10-20T21:14:21.810Z,3.33
2022-10-20T21:16:49.094Z,3.60
2022-10-20T21:19:16.470Z,3.20
2022-10-20T21:21:47.046Z,2.97
2022-10-20T21:24:14.417Z,3.27
2022-10-20T21:26:41.776Z,3.60
2022-10-20T21:29:09.051Z,3.17
2022-10-20T21:31:36.729Z,2.80
2022-10-20T21:34:05.671Z,3.17
2022-10-20T21:36:35.248Z,3.30
2022-10-20T21:39:03.890Z,3.83
2022-10-20T21:41:32.243Z,3.13
2022-10-20T21:44:00.424Z,3.30
2022-10-20T21:46:29.005Z,3.17
2022-10-20T21:49:03.804Z,3.03
2022-10-20T21:51:32.825Z,3.83
2022-10-20T21:54:04.418Z,2.67
2022-10-20T21:56:36.184Z,3.43
2022-10-20T21:59:03.877Z,2.47
2022-10-20T22:01:31.283Z,2.63
2022-10-20T22:03:58.669Z,3.77
2022-10-20T22:06:26.749Z,3.30
2022-10-20T22:08:55.428Z,2.83
2022-10-20T22:11:24.410Z,2.90
2022-10-20T22:13:52.299Z,2.97
2022-10-20T22:16:20.589Z,3.47
2022-10-20T22:18:47.954Z,3.00
2022-10-20T22:21:17.141Z,2.80
2022-10-20T22:23:44.994Z,4.00
2022-10-20T22:26:13.034Z,2.93
2022-10-20T22:28:40.558Z,3.55
2022-10-20T22:31:08.182Z,2.73
2022-10-20T22:33:36.049Z,2.40
2022-10-20T22:36:03.948Z,2.80
2022-10-20T22:38:31.236Z,2.77
2022-10-20T22:40:59.634Z,3.27
2022-10-20T22:43:27.258Z,2.63
2022-10-20T22:45:54.540Z,3.07
2022-10-20T22:48:22.231Z,2.97
2022-10-20T22:50:49.566Z,2.53
2022-10-20T22:53:16.923Z,3.03
2022-10-20T22:55:44.210Z,2.87
2022-10-20T22:58:11.726Z,2.77
2022-10-20T23:00:39.820Z,2.63
2022-10-20T23:03:07.211Z,2.70
2022-10-20T23:05:34.507Z,2.67
2022-10-20T23:08:01.770Z,2.57
2022-10-20T23:10:29.198Z,3.15
2022-10-20T23:12:56.476Z,2.77
2022-10-20T23:15:23.790Z,2.83
2022-10-20T23:17:51.074Z,2.80
2022-10-20T23:20:18.448Z,3.30
2022-10-20T23:22:48.230Z,3.30
2022-10-20T23:25:15.627Z,2.75
2022-10-20T23:27:42.962Z,2.73
2022-10-20T23:30:10.481Z,3.30
2022-10-20T23:32:37.719Z,2.72
2022-10-20T23:35:05.203Z,3.03
2022-10-20T23:37:32.648Z,3.30
2022-10-20T23:39:59.962Z,2.87
2022-10-20T23:42:27.264Z,2.77
2022-10-20T23:44:54.574Z,3.53
2022-10-20T23:47:21.837Z,2.80
2022-10-20T23:49:49.212Z,3.07
2022-10-20T23:52:16.457Z,3.07
2022-10-20T23:54:43.792Z,3.10
2022-10-20T23:57:11.043Z,2.77
2022-10-20T23:59:38.361Z,3.80
